createdAt,value
2016-09-03T00:00:08.511Z,1014.7
2016-09-03T00:00:18.505Z,1014.7
2016-09-03T00:00:28.501Z,1014.7
2016-09-03T00:00:38.496Z,1014.71
2016-09-03T00:00:48.492Z,1014.72
2016-09-03T00:00:58.486Z,1014.75
2016-09-03T00:01:08.481Z,1014.7
2016-09-03T00:01:18.479Z,1014.7
2016-09-03T00:01:28.473Z,1014.67
2016-09-03T00:01:38.470Z,1014.71
2016-09-03T00:01:48.463Z,1014.66
2016-09-03T00:01:58.460Z,1014.67
2016-09-03T00:02:08.457Z,1014.69
2016-09-03T00:02:18.452Z,1014.71
2016-09-03T00:02:28.445Z,1014.64
2016-09-03T00:02:38.441Z,1014.68
2016-09-03T00:02:48.439Z,1014.66
2016-09-03T00:02:58.434Z,1014.64
2016-09-03T00:03:08.427Z,1014.65
2016-09-03T00:03:18.425Z,1014.65
2016-09-03T00:03:28.422Z,1014.63
2016-09-03T00:03:38.414Z,1014.67
2016-09-03T00:03:48.411Z,1014.68
2016-09-03T00:03:58.409Z,1014.65
2016-09-03T00:04:08.402Z,1014.65
2016-09-03T00:04:18.400Z,1014.65
2016-09-03T00:04:28.394Z,1014.64
2016-09-03T00:04:38.390Z,1014.63
2016-09-03T00:04:48.386Z,1014.6
2016-09-03T00:04:58.377Z,1014.68
2016-09-03T00:05:08.375Z,1014.63
2016-09-03T00:05:18.369Z,1014.6
2016-09-03T00:05:28.366Z,1014.59
2016-09-03T00:05:38.362Z,1014.62
2016-09-03T00:05:48.358Z,1014.63
2016-09-03T00:05:58.353Z,1014.57
2016-09-03T00:06:08.348Z,1014.58
2016-09-03T00:06:18.345Z,1014.6
2016-09-03T00:06:28.339Z,1014.57
2016-09-03T00:06:38.337Z,1014.57
2016-09-03T00:06:48.331Z,1014.57
2016-09-03T00:06:58.332Z,1014.57
2016-09-03T00:07:08.322Z,1014.56
2016-09-03T00:07:18.318Z,1014.53
2016-09-03T00:07:28.315Z,1014.56
2016-09-03T00:07:38.309Z,1014.51
2016-09-03T00:07:48.302Z,1014.54
2016-09-03T00:07:58.299Z,1014.52
2016-09-03T00:08:08.295Z,1014.53
2016-09-03T00:08:18.290Z,1014.53
2016-09-03T00:08:28.287Z,1014.52
2016-09-03T00:08:38.282Z,1014.52
2016-09-03T00:08:48.279Z,1014.53
2016-09-03T00:08:58.275Z,1014.53
2016-09-03T00:09:08.270Z,1014.51
2016-09-03T00:09:18.266Z,1014.54
2016-09-03T00:09:28.259Z,1014.55
2016-09-03T00:09:38.259Z,1014.55
2016-09-03T00:09:48.250Z,1014.54
2016-09-03T00:09:58.248Z,1014.54
2016-09-03T00:10:08.245Z,1014.52
2016-09-03T00:10:18.236Z,1014.51
2016-09-03T00:10:28.235Z,1014.51
2016-09-03T00:10:38.226Z,1014.54
2016-09-03T00:10:48.225Z,1014.53
2016-09-03T00:10:58.224Z,1014.53
2016-09-03T00:11:08.215Z,1014.54
2016-09-03T00:11:18.212Z,1014.51
2016-09-03T00:11:28.207Z,1014.53
2016-09-03T00:11:38.203Z,1014.49
2016-09-03T00:11:48.197Z,1014.52
2016-09-03T00:11:58.193Z,1014.49
2016-09-03T00:12:08.189Z,1014.55
2016-09-03T00:12:18.185Z,1014.5
2016-09-03T00:12:28.180Z,1014.55
2016-09-03T00:12:38.175Z,1014.53
2016-09-03T00:12:48.172Z,1014.47
2016-09-03T00:12:58.166Z,1014.49
2016-09-03T00:13:08.164Z,1014.47
2016-09-03T00:13:18.158Z,1014.48
2016-09-03T00:13:28.153Z,1014.49
2016-09-03T00:13:38.151Z,1014.47
2016-09-03T00:13:48.146Z,1014.46
2016-09-03T00:13:58.140Z,1014.48
2016-09-03T00:14:08.138Z,1014.47
2016-09-03T00:14:18.130Z,1014.48
2016-09-03T00:14:28.127Z,1014.48
2016-09-03T00:14:38.123Z,1014.46
2016-09-03T00:14:48.119Z,1014.46
2016-09-03T00:14:58.111Z,1014.45
2016-09-03T00:15:08.110Z,1014.46
2016-09-03T00:15:18.103Z,1014.43
2016-09-03T00:15:28.102Z,1014.47
2016-09-03T00:15:38.095Z,1014.45
2016-09-03T00:15:48.089Z,1014.46
2016-09-03T00:15:58.087Z,1014.49
2016-09-03T00:16:08.081Z,1014.46
2016-09-03T00:16:18.078Z,1014.5
2016-09-03T00:16:28.072Z,1014.48
2016-09-03T00:16:38.068Z,1014.52
2016-09-03T00:16:48.064Z,1014.46
2016-09-03T00:16:58.059Z,1014.45
2016-09-03T00:17:08.053Z,1014.45
2016-09-03T00:17:18.048Z,1014.44
2016-09-03T00:17:28.045Z,1014.44
2016-09-03T00:17:38.042Z,1014.44
2016-09-03T00:17:48.035Z,1014.46
2016-09-03T00:17:58.031Z,1014.45
2016-09-03T00:18:08.027Z,1014.45
2016-09-03T00:18:18.025Z,1014.42
2016-09-03T00:18:28.016Z,1014.45
2016-09-03T00:18:38.012Z,1014.44
2016-09-03T00:18:48.009Z,1014.42
2016-09-03T00:18:58.004Z,1014.42
2016-09-03T00:19:07.997Z,1014.38
2016-09-03T00:19:17.995Z,1014.43
2016-09-03T00:19:27.992Z,1014.39
2016-09-03T00:19:37.985Z,1014.44
2016-09-03T00:19:47.980Z,1014.41
2016-09-03T00:19:57.975Z,1014.37
2016-09-03T00:20:07.972Z,1014.39
2016-09-03T00:20:17.969Z,1014.38
2016-09-03T00:20:27.963Z,1014.42
2016-09-03T00:20:37.956Z,1014.39
2016-09-03T00:20:47.957Z,1014.4
2016-09-03T00:20:57.951Z,1014.4
2016-09-03T00:21:07.945Z,1014.41
2016-09-03T00:21:17.940Z,1014.36
2016-09-03T00:21:27.938Z,1014.41
2016-09-03T00:21:37.936Z,1014.46
2016-09-03T00:21:47.929Z,1014.45
2016-09-03T00:21:57.924Z,1014.44
2016-09-03T00:22:07.918Z,1014.41
2016-09-03T00:22:18.858Z,1014.4
2016-09-03T00:22:27.911Z,1014.39
2016-09-03T00:22:37.905Z,1014.42
2016-09-03T00:22:47.902Z,1014.42
2016-09-03T00:22:57.898Z,1014.41
2016-09-03T00:23:07.892Z,1014.4
2016-09-03T00:23:17.889Z,1014.42
2016-09-03T00:23:27.885Z,1014.38
2016-09-03T00:23:37.879Z,1014.39
2016-09-03T00:23:47.874Z,1014.4
2016-09-03T00:23:57.868Z,1014.38
2016-09-03T00:24:07.867Z,1014.4
2016-09-03T00:24:17.862Z,1014.38
2016-09-03T00:24:27.856Z,1014.36
2016-09-03T00:24:37.852Z,1014.39
2016-09-03T00:24:47.846Z,1014.37
2016-09-03T00:24:57.843Z,1014.37
2016-09-03T00:25:07.838Z,1014.36
2016-09-03T00:25:17.834Z,1014.38
2016-09-03T00:25:27.830Z,1014.38
2016-09-03T00:25:37.825Z,1014.35
2016-09-03T00:25:47.821Z,1014.39
2016-09-03T00:25:57.817Z,1014.36
2016-09-03T00:26:07.820Z,1014.34
2016-09-03T00:26:17.808Z,1014.35
2016-09-03T00:26:27.803Z,1014.3
2016-09-03T00:26:37.799Z,1014.37
2016-09-03T00:26:47.795Z,1014.35
2016-09-03T00:26:57.791Z,1014.34
2016-09-03T00:27:07.784Z,1014.29
2016-09-03T00:27:17.781Z,1014.34
2016-09-03T00:27:27.778Z,1014.33
2016-09-03T00:27:37.769Z,1014.33
2016-09-03T00:27:47.765Z,1014.3
2016-09-03T00:27:57.773Z,1014.31
2016-09-03T00:28:07.756Z,1014.27
2016-09-03T00:28:17.754Z,1014.34
2016-09-03T00:28:27.748Z,1014.29
2016-09-03T00:28:37.745Z,1014.34
2016-09-03T00:28:47.743Z,1014.31
2016-09-03T00:28:57.735Z,1014.3
2016-09-03T00:29:07.733Z,1014.28
2016-09-03T00:29:18.458Z,1014.26
2016-09-03T00:29:27.724Z,1014.27
2016-09-03T00:29:37.719Z,1014.26
2016-09-03T00:29:47.712Z,1014.27
2016-09-03T00:29:57.707Z,1014.24
2016-09-03T00:30:07.703Z,1014.26
2016-09-03T00:30:17.700Z,1014.26
2016-09-03T00:30:27.695Z,1014.26
2016-09-03T00:30:37.691Z,1014.28
2016-09-03T00:30:47.688Z,1014.28
2016-09-03T00:30:57.683Z,1014.24
2016-09-03T00:31:07.675Z,1014.28
2016-09-03T00:31:17.674Z,1014.26
2016-09-03T00:31:27.669Z,1014.27
2016-09-03T00:31:37.663Z,1014.27
2016-09-03T00:31:47.661Z,1014.24
2016-09-03T00:31:57.654Z,1014.24
2016-09-03T00:32:07.649Z,1014.22
2016-09-03T00:32:17.647Z,1014.22
2016-09-03T00:32:27.643Z,1014.19
2016-09-03T00:32:37.638Z,1014.24
2016-09-03T00:32:47.633Z,1014.23
2016-09-03T00:32:57.627Z,1014.18
2016-09-03T00:33:07.623Z,1014.22
2016-09-03T00:33:17.619Z,1014.24
2016-09-03T00:33:27.614Z,1014.18
2016-09-03T00:33:37.610Z,1014.19
2016-09-03T00:33:47.607Z,1014.22
2016-09-03T00:33:57.601Z,1014.21
2016-09-03T00:34:07.596Z,1014.22
2016-09-03T00:34:17.593Z,1014.15
2016-09-03T00:34:27.587Z,1014.2
2016-09-03T00:34:37.582Z,1014.18
2016-09-03T00:34:47.579Z,1014.19
2016-09-03T00:34:57.573Z,1014.17
2016-09-03T00:35:07.570Z,1014.16
2016-09-03T00:35:17.566Z,1014.17
2016-09-03T00:35:27.559Z,1014.19
2016-09-03T00:35:37.555Z,1014.16
2016-09-03T00:35:48.279Z,1014.18
2016-09-03T00:35:57.547Z,1014.17
2016-09-03T00:36:07.541Z,1014.17
2016-09-03T00:36:17.538Z,1014.13
2016-09-03T00:36:27.535Z,1014.17
2016-09-03T00:36:37.530Z,1014.15
2016-09-03T00:36:47.525Z,1014.12
2016-09-03T00:36:57.521Z,1014.13
2016-09-03T00:37:07.515Z,1014.14
2016-09-03T00:37:17.511Z,1014.11
2016-09-03T00:37:27.508Z,1014.07
2016-09-03T00:37:37.507Z,1014.13
2016-09-03T00:37:47.500Z,1014.12
2016-09-03T00:37:57.491Z,1014.07
2016-09-03T00:38:07.490Z,1014.08
2016-09-03T00:38:17.484Z,1014.08
2016-09-03T00:38:27.480Z,1014.12
2016-09-03T00:38:37.475Z,1014.14
2016-09-03T00:38:47.473Z,1014.06
2016-09-03T00:38:57.467Z,1014.14
2016-09-03T00:39:07.460Z,1014.1
2016-09-03T00:39:17.457Z,1014.09
2016-09-03T00:39:27.452Z,1014.16
2016-09-03T00:39:37.446Z,1014.15
2016-09-03T00:39:47.443Z,1014.18
2016-09-03T00:39:57.437Z,1014.09
2016-09-03T00:40:07.436Z,1014.14
2016-09-03T00:40:17.430Z,1014.16
2016-09-03T00:40:27.426Z,1014.12
2016-09-03T00:40:37.421Z,1014.12
2016-09-03T00:40:47.417Z,1014.14
2016-09-03T00:40:57.411Z,1014.12
2016-09-03T00:41:07.409Z,1014.13
2016-09-03T00:41:17.407Z,1014.15
2016-09-03T00:41:27.397Z,1014.11
2016-09-03T00:41:37.394Z,1014.12
2016-09-03T00:41:47.389Z,1014.11
2016-09-03T00:41:57.384Z,1014.06
2016-09-03T00:42:07.381Z,1014.06
2016-09-03T00:42:17.375Z,1014.14
2016-09-03T00:42:27.371Z,1014.1
2016-09-03T00:42:38.095Z,1014.12
2016-09-03T00:42:47.364Z,1014.08
2016-09-03T00:42:57.359Z,1014.12
2016-09-03T00:43:07.354Z,1014.07
2016-09-03T00:43:17.349Z,1014.09
2016-09-03T00:43:27.344Z,1014.06
2016-09-03T00:43:37.340Z,1014.09
2016-09-03T00:43:47.338Z,1014.08
2016-09-03T00:43:57.331Z,1014.04
2016-09-03T00:44:07.327Z,1014.14
2016-09-03T00:44:17.321Z,1014.06
2016-09-03T00:44:27.317Z,1014.06
2016-09-03T00:44:37.314Z,1014.06
2016-09-03T00:44:47.307Z,1014.06
2016-09-03T00:44:57.305Z,1014.07
2016-09-03T00:45:07.304Z,1014.04
2016-09-03T00:45:17.296Z,1014.05
2016-09-03T00:45:27.290Z,1014.03
2016-09-03T00:45:37.289Z,1014.05
2016-09-03T00:45:47.282Z,1014.03
2016-09-03T00:45:57.278Z,1014.05
2016-09-03T00:46:07.273Z,1014.03
2016-09-03T00:46:17.270Z,1014.1
2016-09-03T00:46:27.263Z,1014.05
2016-09-03T00:46:37.259Z,1014.05
2016-09-03T00:46:47.255Z,1014.09
2016-09-03T00:46:57.250Z,1014.03
2016-09-03T00:47:07.246Z,1014.07
2016-09-03T00:47:17.241Z,1014.05
2016-09-03T00:47:27.238Z,1014.07
2016-09-03T00:47:37.233Z,1014.02
2016-09-03T00:47:47.228Z,1014.05
2016-09-03T00:47:57.220Z,1014.06
2016-09-03T00:48:07.220Z,1014.04
2016-09-03T00:48:17.214Z,1014.05
2016-09-03T00:48:27.210Z,1014.03
2016-09-03T00:48:37.205Z,1014.06
2016-09-03T00:48:47.201Z,1014.05
2016-09-03T00:48:57.196Z,1014.03
2016-09-03T00:49:07.191Z,1014
2016-09-03T00:49:17.198Z,1014.02
2016-09-03T00:49:27.183Z,1013.98
2016-09-03T00:49:37.177Z,1013.96
2016-09-03T00:49:47.179Z,1014.01
2016-09-03T00:49:57.168Z,1013.98
2016-09-03T00:50:07.164Z,1013.98
2016-09-03T00:50:17.160Z,1013.96
2016-09-03T00:50:27.157Z,1013.98
2016-09-03T00:50:37.156Z,1013.96
2016-09-03T00:50:47.146Z,1014.01
2016-09-03T00:50:57.142Z,1013.98
2016-09-03T00:51:07.139Z,1013.98
2016-09-03T00:51:17.134Z,1013.99
2016-09-03T00:51:27.127Z,1013.97
2016-09-03T00:51:37.123Z,1013.98
2016-09-03T00:51:47.120Z,1013.99
2016-09-03T00:51:57.115Z,1013.99
2016-09-03T00:52:07.108Z,1014
2016-09-03T00:52:17.112Z,1013.96
2016-09-03T00:52:27.103Z,1013.93
2016-09-03T00:52:37.824Z,1013.99
2016-09-03T00:52:47.094Z,1013.96
2016-09-03T00:52:57.089Z,1013.94
2016-09-03T00:53:07.085Z,1013.99
2016-09-03T00:53:17.081Z,1013.97
2016-09-03T00:53:27.073Z,1014.01
2016-09-03T00:53:37.072Z,1013.97
2016-09-03T00:53:47.071Z,1013.93
2016-09-03T00:53:57.062Z,1013.96
2016-09-03T00:54:07.060Z,1013.98
2016-09-03T00:54:17.052Z,1013.99
2016-09-03T00:54:27.048Z,1014.01
2016-09-03T00:54:37.041Z,1013.97
2016-09-03T00:54:47.038Z,1013.98
2016-09-03T00:54:57.033Z,1013.98
2016-09-03T00:55:07.026Z,1014
2016-09-03T00:55:17.025Z,1013.98
2016-09-03T00:55:27.021Z,1014.01
2016-09-03T00:55:37.017Z,1014.01
2016-09-03T00:55:47.011Z,1013.99
2016-09-03T00:55:57.008Z,1014
2016-09-03T00:56:07.003Z,1014.04
2016-09-03T00:56:16.999Z,1014.02
2016-09-03T00:56:26.994Z,1014.03
2016-09-03T00:56:36.989Z,1014.03
2016-09-03T00:56:46.985Z,1013.97
2016-09-03T00:56:56.983Z,1014
2016-09-03T00:57:06.975Z,1013.99
2016-09-03T00:57:16.971Z,1013.99
2016-09-03T00:57:26.967Z,1014
2016-09-03T00:57:36.963Z,1014.03
2016-09-03T00:57:46.956Z,1014
2016-09-03T00:57:56.953Z,1014.01
2016-09-03T00:58:06.948Z,1013.98
2016-09-03T00:58:16.946Z,1013.97
2016-09-03T00:58:26.939Z,1014.01
2016-09-03T00:58:36.934Z,1013.98
2016-09-03T00:58:46.931Z,1013.98
2016-09-03T00:58:56.927Z,1013.97
2016-09-03T00:59:06.923Z,1013.92
2016-09-03T00:59:16.915Z,1013.95
2016-09-03T00:59:26.914Z,1013.94
2016-09-03T00:59:36.907Z,1013.99
2016-09-03T00:59:46.903Z,1013.93
2016-09-03T00:59:56.897Z,1013.95
2016-09-03T01:00:06.896Z,1013.98
2016-09-03T01:00:16.889Z,1014
2016-09-03T01:00:26.884Z,1014
2016-09-03T01:00:36.882Z,1014.01
2016-09-03T01:00:46.877Z,1014.03
2016-09-03T01:00:56.872Z,1014.03
2016-09-03T01:01:06.881Z,1013.98
2016-09-03T01:01:16.864Z,1013.98
2016-09-03T01:01:26.859Z,1014.02
2016-09-03T01:01:36.856Z,1014.02
2016-09-03T01:01:46.849Z,1014.02
2016-09-03T01:01:56.847Z,1014.03
2016-09-03T01:02:06.843Z,1014.02
2016-09-03T01:02:16.835Z,1014.06
2016-09-03T01:02:26.832Z,1014.05
2016-09-03T01:02:36.825Z,1014.09
2016-09-03T01:02:46.821Z,1014.1
2016-09-03T01:02:56.816Z,1014.06
2016-09-03T01:03:06.813Z,1014.07
2016-09-03T01:03:16.810Z,1014.06
2016-09-03T01:03:26.806Z,1014.09
2016-09-03T01:03:36.800Z,1014.11
2016-09-03T01:03:46.795Z,1014.06
2016-09-03T01:03:56.791Z,1014.08
2016-09-03T01:04:06.787Z,1014.05
2016-09-03T01:04:16.781Z,1014.12
2016-09-03T01:04:26.777Z,1014.14
2016-09-03T01:04:36.771Z,1014.1
2016-09-03T01:04:46.769Z,1014.11
2016-09-03T01:04:56.762Z,1014.14
2016-09-03T01:05:06.759Z,1014.15
2016-09-03T01:05:16.753Z,1014.1
2016-09-03T01:05:26.749Z,1014.1
2016-09-03T01:05:36.746Z,1014.12
2016-09-03T01:05:46.743Z,1014.09
2016-09-03T01:05:56.734Z,1014.1
2016-09-03T01:06:06.731Z,1014.11
2016-09-03T01:06:16.726Z,1014.1
2016-09-03T01:06:26.725Z,1014.14
2016-09-03T01:06:36.718Z,1014.14
2016-09-03T01:06:46.714Z,1014.09
2016-09-03T01:06:56.710Z,1014.09
2016-09-03T01:07:06.705Z,1014.07
2016-09-03T01:07:16.700Z,1014.1
2016-09-03T01:07:26.697Z,1014.1
2016-09-03T01:07:36.692Z,1014.11
2016-09-03T01:07:46.688Z,1014.12
2016-09-03T01:07:56.683Z,1014.13
2016-09-03T01:08:06.679Z,1014.12
2016-09-03T01:08:16.674Z,1014.12
2016-09-03T01:08:26.670Z,1014.12
2016-09-03T01:08:36.663Z,1014.13
2016-09-03T01:08:46.660Z,1014.13
2016-09-03T01:08:56.656Z,1014.15
2016-09-03T01:09:06.649Z,1014.15
2016-09-03T01:09:16.645Z,1014.17
2016-09-03T01:09:26.640Z,1014.12
2016-09-03T01:09:36.638Z,1014.12
2016-09-03T01:09:46.634Z,1014.12
2016-09-03T01:09:56.628Z,1014.11
2016-09-03T01:10:06.624Z,1014.12
2016-09-03T01:10:16.620Z,1014.16
2016-09-03T01:10:26.615Z,1014.14
2016-09-03T01:10:36.609Z,1014.12
2016-09-03T01:10:46.604Z,1014.16
2016-09-03T01:10:56.601Z,1014.16
2016-09-03T01:11:06.595Z,1014.15
2016-09-03T01:11:16.592Z,1014.17
2016-09-03T01:11:26.587Z,1014.16
2016-09-03T01:11:36.583Z,1014.22
2016-09-03T01:11:46.585Z,1014.17
2016-09-03T01:11:56.573Z,1014.21
2016-09-03T01:12:06.569Z,1014.21
2016-09-03T01:12:16.565Z,1014.18
2016-09-03T01:12:26.560Z,1014.22
2016-09-03T01:12:36.554Z,1014.26
2016-09-03T01:12:46.550Z,1014.25
2016-09-03T01:12:56.547Z,1014.26
2016-09-03T01:13:06.543Z,1014.3
2016-09-03T01:13:16.536Z,1014.27
2016-09-03T01:13:26.533Z,1014.25
2016-09-03T01:13:36.529Z,1014.29
2016-09-03T01:13:46.524Z,1014.25
2016-09-03T01:13:56.518Z,1014.28
2016-09-03T01:14:06.517Z,1014.3
2016-09-03T01:14:16.511Z,1014.27
2016-09-03T01:14:26.509Z,1014.31
2016-09-03T01:14:36.502Z,1014.3
2016-09-03T01:14:46.498Z,1014.31
2016-09-03T01:14:56.494Z,1014.27
2016-09-03T01:15:06.489Z,1014.29
2016-09-03T01:15:16.482Z,1014.31
2016-09-03T01:15:26.479Z,1014.28
2016-09-03T01:15:36.472Z,1014.24
2016-09-03T01:15:46.468Z,1014.22
2016-09-03T01:15:56.465Z,1014.22
2016-09-03T01:16:06.459Z,1014.26
2016-09-03T01:16:16.455Z,1014.31
2016-09-03T01:16:26.452Z,1014.25
2016-09-03T01:16:36.446Z,1014.27
2016-09-03T01:16:46.445Z,1014.26
2016-09-03T01:16:56.438Z,1014.26
2016-09-03T01:17:06.434Z,1014.21
2016-09-03T01:17:16.429Z,1014.26
2016-09-03T01:17:26.425Z,1014.25
2016-09-03T01:17:36.421Z,1014.26
2016-09-03T01:17:46.414Z,1014.27
2016-09-03T01:17:56.411Z,1014.32
2016-09-03T01:18:06.408Z,1014.3
2016-09-03T01:18:16.403Z,1014.34
2016-09-03T01:18:26.395Z,1014.29
2016-09-03T01:18:36.390Z,1014.27
2016-09-03T01:18:46.385Z,1014.29
2016-09-03T01:18:56.383Z,1014.26
2016-09-03T01:19:06.381Z,1014.2
2016-09-03T01:19:16.379Z,1014.29
2016-09-03T01:19:26.371Z,1014.25
2016-09-03T01:19:36.365Z,1014.27
2016-09-03T01:19:46.360Z,1014.26
2016-09-03T01:19:56.359Z,1014.27
2016-09-03T01:20:06.349Z,1014.29
2016-09-03T01:20:16.346Z,1014.27
2016-09-03T01:20:26.344Z,1014.21
2016-09-03T01:20:36.341Z,1014.28
2016-09-03T01:20:46.335Z,1014.24
2016-09-03T01:20:56.329Z,1014.24
2016-09-03T01:21:06.326Z,1014.29
2016-09-03T01:21:16.321Z,1014.24
2016-09-03T01:21:26.317Z,1014.3
2016-09-03T01:21:36.311Z,1014.26
2016-09-03T01:21:46.308Z,1014.2
2016-09-03T01:21:56.303Z,1014.24
2016-09-03T01:22:06.297Z,1014.29
2016-09-03T01:22:16.293Z,1014.21
2016-09-03T01:22:26.290Z,1014.27
2016-09-03T01:22:36.284Z,1014.25
2016-09-03T01:22:46.280Z,1014.22
2016-09-03T01:22:56.276Z,1014.24
2016-09-03T01:23:06.270Z,1014.21
2016-09-03T01:23:16.267Z,1014.22
2016-09-03T01:23:26.260Z,1014.23
2016-09-03T01:23:36.257Z,1014.23
2016-09-03T01:23:46.254Z,1014.21
2016-09-03T01:23:56.247Z,1014.23
2016-09-03T01:24:06.245Z,1014.25
2016-09-03T01:24:16.239Z,1014.24
2016-09-03T01:24:26.236Z,1014.3
2016-09-03T01:24:36.230Z,1014.27
2016-09-03T01:24:46.230Z,1014.23
2016-09-03T01:24:56.221Z,1014.24
2016-09-03T01:25:06.217Z,1014.27
2016-09-03T01:25:16.211Z,1014.25
2016-09-03T01:25:26.210Z,1014.26
2016-09-03T01:25:36.202Z,1014.25
2016-09-03T01:25:46.207Z,1014.25
2016-09-03T01:25:56.195Z,1014.2
2016-09-03T01:26:06.189Z,1014.23
2016-09-03T01:26:16.184Z,1014.23
2016-09-03T01:26:26.185Z,1014.17
2016-09-03T01:26:36.176Z,1014.25
2016-09-03T01:26:46.177Z,1014.21
2016-09-03T01:26:56.166Z,1014.21
2016-09-03T01:27:06.160Z,1014.26
2016-09-03T01:27:16.159Z,1014.19
2016-09-03T01:27:26.155Z,1014.22
2016-09-03T01:27:36.149Z,1014.2
2016-09-03T01:27:46.143Z,1014.18
2016-09-03T01:27:56.139Z,1014.26
2016-09-03T01:28:06.135Z,1014.21
2016-09-03T01:28:16.132Z,1014.22
2016-09-03T01:28:26.127Z,1014.19
2016-09-03T01:28:36.123Z,1014.2
2016-09-03T01:28:46.118Z,1014.18
2016-09-03T01:28:56.117Z,1014.2
2016-09-03T01:29:06.105Z,1014.21
2016-09-03T01:29:16.103Z,1014.2
2016-09-03T01:29:26.097Z,1014.2
2016-09-03T01:29:36.095Z,1014.24
2016-09-03T01:29:46.091Z,1014.23
2016-09-03T01:29:56.084Z,1014.18
2016-09-03T01:30:06.082Z,1014.2
2016-09-03T01:30:16.076Z,1014.16
2016-09-03T01:30:26.071Z,1014.23
2016-09-03T01:30:36.066Z,1014.2
2016-09-03T01:30:46.060Z,1014.16
2016-09-03T01:30:56.057Z,1014.19
2016-09-03T01:31:06.052Z,1014.17
2016-09-03T01:31:16.050Z,1014.25
2016-09-03T01:31:26.045Z,1014.17
2016-09-03T01:31:36.041Z,1014.18
2016-09-03T01:31:46.035Z,1014.17
2016-09-03T01:31:56.031Z,1014.16
2016-09-03T01:32:06.027Z,1014.14
2016-09-03T01:32:16.023Z,1014.16
2016-09-03T01:32:26.017Z,1014.13
2016-09-03T01:32:36.013Z,1014.15
2016-09-03T01:32:46.006Z,1014.1
2016-09-03T01:32:56.003Z,1014.16
2016-09-03T01:33:05.999Z,1014.1
2016-09-03T01:33:15.995Z,1014.14
2016-09-03T01:33:25.990Z,1014.12
2016-09-03T01:33:35.991Z,1014.13
2016-09-03T01:33:45.978Z,1014.14
2016-09-03T01:33:55.976Z,1014.1
2016-09-03T01:34:05.973Z,1014.11
2016-09-03T01:34:15.969Z,1014.09
2016-09-03T01:34:25.964Z,1014.1
2016-09-03T01:34:35.956Z,1014.1
2016-09-03T01:34:45.955Z,1014.07
2016-09-03T01:34:55.950Z,1014.1
2016-09-03T01:35:05.947Z,1014.06
2016-09-03T01:35:15.941Z,1014.15
2016-09-03T01:35:25.938Z,1014.07
2016-09-03T01:35:35.931Z,1014.1
2016-09-03T01:35:45.928Z,1014.06
2016-09-03T01:35:55.921Z,1014.12
2016-09-03T01:36:05.918Z,1014.1
2016-09-03T01:36:15.914Z,1014.15
2016-09-03T01:36:25.909Z,1014.12
2016-09-03T01:36:35.905Z,1014.08
2016-09-03T01:36:45.900Z,1014.12
2016-09-03T01:36:55.895Z,1014.09
2016-09-03T01:37:05.892Z,1014.15
2016-09-03T01:37:15.886Z,1014.13
2016-09-03T01:37:25.884Z,1014.14
2016-09-03T01:37:35.877Z,1014.12
2016-09-03T01:37:45.872Z,1014.14
2016-09-03T01:37:55.870Z,1014.14
2016-09-03T01:38:05.865Z,1014.12
2016-09-03T01:38:15.860Z,1014.11
2016-09-03T01:38:25.854Z,1014.1
2016-09-03T01:38:35.849Z,1014.16
2016-09-03T01:38:45.843Z,1014.12
2016-09-03T01:38:55.842Z,1014.15
2016-09-03T01:39:05.836Z,1014.17
2016-09-03T01:39:15.831Z,1014.13
2016-09-03T01:39:25.827Z,1014.16
2016-09-03T01:39:35.823Z,1014.13
2016-09-03T01:39:45.818Z,1014.12
2016-09-03T01:39:55.815Z,1014.18
2016-09-03T01:40:05.810Z,1014.15
2016-09-03T01:40:15.804Z,1014.15
2016-09-03T01:40:25.801Z,1014.12
2016-09-03T01:40:35.796Z,1014.15
2016-09-03T01:40:45.792Z,1014.17
2016-09-03T01:40:55.788Z,1014.15
2016-09-03T01:41:05.784Z,1014.17
2016-09-03T01:41:15.775Z,1014.19
2016-09-03T01:41:25.774Z,1014.17
2016-09-03T01:41:35.768Z,1014.18
2016-09-03T01:41:45.762Z,1014.15
2016-09-03T01:41:55.759Z,1014.14
2016-09-03T01:42:05.754Z,1014.2
2016-09-03T01:42:15.749Z,1014.13
2016-09-03T01:42:25.745Z,1014.12
2016-09-03T01:42:35.740Z,1014.12
2016-09-03T01:42:45.737Z,1014.16
2016-09-03T01:42:55.734Z,1014.17
2016-09-03T01:43:05.728Z,1014.15
2016-09-03T01:43:15.724Z,1014.14
2016-09-03T01:43:25.718Z,1014.13
2016-09-03T01:43:35.714Z,1014.13
2016-09-03T01:43:45.709Z,1014.18
2016-09-03T01:43:55.704Z,1014.15
2016-09-03T01:44:05.701Z,1014.16
2016-09-03T01:44:15.696Z,1014.12
2016-09-03T01:44:25.691Z,1014.16
2016-09-03T01:44:35.688Z,1014.16
2016-09-03T01:44:45.684Z,1014.19
2016-09-03T01:44:55.678Z,1014.17
2016-09-03T01:45:05.673Z,1014.16
2016-09-03T01:45:15.666Z,1014.15
2016-09-03T01:45:25.664Z,1014.23
2016-09-03T01:45:35.660Z,1014.18
2016-09-03T01:45:45.654Z,1014.21
2016-09-03T01:45:55.650Z,1014.21
2016-09-03T01:46:05.644Z,1014.22
2016-09-03T01:46:15.641Z,1014.17
2016-09-03T01:46:25.635Z,1014.2
2016-09-03T01:46:35.630Z,1014.15
2016-09-03T01:46:45.626Z,1014.2
2016-09-03T01:46:55.623Z,1014.14
2016-09-03T01:47:05.616Z,1014.21
2016-09-03T01:47:15.612Z,1014.19
2016-09-03T01:47:25.609Z,1014.16
2016-09-03T01:47:35.605Z,1014.16
2016-09-03T01:47:45.601Z,1014.16
2016-09-03T01:47:55.596Z,1014.22
2016-09-03T01:48:05.592Z,1014.18
2016-09-03T01:48:15.586Z,1014.17
2016-09-03T01:48:25.578Z,1014.21
2016-09-03T01:48:35.578Z,1014.16
2016-09-03T01:48:45.573Z,1014.15
2016-09-03T01:48:55.568Z,1014.19
2016-09-03T01:49:05.563Z,1014.19
2016-09-03T01:49:15.561Z,1014.21
2016-09-03T01:49:25.556Z,1014.16
2016-09-03T01:49:35.550Z,1014.21
2016-09-03T01:49:45.545Z,1014.2
2016-09-03T01:49:55.541Z,1014.18
2016-09-03T01:50:05.537Z,1014.2
2016-09-03T01:50:15.531Z,1014.15
2016-09-03T01:50:25.529Z,1014.22
2016-09-03T01:50:35.524Z,1014.2
2016-09-03T01:50:45.528Z,1014.15
2016-09-03T01:50:55.515Z,1014.17
2016-09-03T01:51:05.508Z,1014.17
2016-09-03T01:51:15.503Z,1014.17
2016-09-03T01:51:25.503Z,1014.18
2016-09-03T01:51:35.495Z,1014.18
2016-09-03T01:51:45.491Z,1014.18
2016-09-03T01:51:55.486Z,1014.17
2016-09-03T01:52:05.482Z,1014.13
2016-09-03T01:52:15.475Z,1014.13
2016-09-03T01:52:25.474Z,1014.15
2016-09-03T01:52:35.469Z,1014.17
2016-09-03T01:52:45.463Z,1014.16
2016-09-03T01:52:55.460Z,1014.15
2016-09-03T01:53:05.455Z,1014.16
2016-09-03T01:53:15.450Z,1014.14
2016-09-03T01:53:25.444Z,1014.16
2016-09-03T01:53:35.442Z,1014.16
2016-09-03T01:53:45.437Z,1014.18
2016-09-03T01:53:55.431Z,1014.12
2016-09-03T01:54:05.430Z,1014.13
2016-09-03T01:54:15.423Z,1014.13
2016-09-03T01:54:25.418Z,1014.12
2016-09-03T01:54:35.415Z,1014.12
2016-09-03T01:54:45.409Z,1014.1
2016-09-03T01:54:55.403Z,1014.12
2016-09-03T01:55:05.399Z,1014.08
2016-09-03T01:55:15.396Z,1014.12
2016-09-03T01:55:25.393Z,1014.09
2016-09-03T01:55:35.386Z,1014.15
2016-09-03T01:55:45.383Z,1014.11
2016-09-03T01:55:55.376Z,1014.12
2016-09-03T01:56:05.370Z,1014.16
2016-09-03T01:56:15.368Z,1014.09
2016-09-03T01:56:25.362Z,1014.13
2016-09-03T01:56:35.358Z,1014.13
2016-09-03T01:56:45.354Z,1014.13
2016-09-03T01:56:55.349Z,1014.13
2016-09-03T01:57:05.344Z,1014.16
2016-09-03T01:57:15.341Z,1014.14
2016-09-03T01:57:25.337Z,1014.14
2016-09-03T01:57:35.332Z,1014.15
2016-09-03T01:57:45.327Z,1014.14
2016-09-03T01:57:55.322Z,1014.21
2016-09-03T01:58:05.318Z,1014.13
2016-09-03T01:58:15.314Z,1014.12
2016-09-03T01:58:25.309Z,1014.15
2016-09-03T01:58:35.305Z,1014.13
2016-09-03T01:58:45.300Z,1014.1
2016-09-03T01:58:55.295Z,1014.15
2016-09-03T01:59:05.291Z,1014.11
2016-09-03T01:59:15.284Z,1014.12
2016-09-03T01:59:25.284Z,1014.1
2016-09-03T01:59:35.277Z,1014.06
2016-09-03T01:59:45.273Z,1014.08
2016-09-03T01:59:55.269Z,1014.07
2016-09-03T02:00:05.267Z,1014.09
2016-09-03T02:00:15.260Z,1014.05
2016-09-03T02:00:25.254Z,1014.06
2016-09-03T02:00:35.251Z,1014.05
2016-09-03T02:00:45.246Z,1014.03
2016-09-03T02:00:55.239Z,1014.03
2016-09-03T02:01:05.236Z,1014.04
2016-09-03T02:01:15.232Z,1014.03
2016-09-03T02:01:25.227Z,1014.03